Time;durP1;ratioP1;P1;durP2;ratioP2;P2;SDS_P1;SDS_P2;PMS_P1;PMS_P2;Temp;Humidity;BMP_temperature;BMP_pressure;BME280_temperature;BME280_humidity;BME280_pressure;Samples;Min_cycle;Max_cycle;Signal;HPM_P1;HPM_P2
2022/06/19 00:00:12;;;;;;;32.88;23.02;;;;;;;;;;1663400;29;22582;-63
2022/06/19 00:01:04;;;;;;;26.60;21.13;;;;;;;;;;1662303;29;22528;-64
2022/06/19 00:01:57;;;;;;;28.83;20.85;;;;;;;;;;1671331;29;21824;-65
2022/06/19 00:02:49;;;;;;;25.63;19.52;;;;;;;;;;1671036;29;22666;-64
2022/06/19 00:03:46;;;;;;;28.45;21.08;;;;;;;;;;1668974;29;21638;-64
2022/06/19 00:04:38;;;;;;;27.92;20.20;;;;;;;;;;1668858;29;22239;-63
2022/06/19 00:05:31;;;;;;;31.77;21.73;;;;;;;;;;1668822;29;21764;-64
2022/06/19 00:06:23;;;;;;;27.77;21.20;;;;;;;;;;1674067;29;21887;-64
2022/06/19 00:07:16;;;;;;;27.25;20.60;;;;;;;;;;1664419;29;22627;-64
2022/06/19 00:08:08;;;;;;;24.02;19.38;;;;;;;;;;1662270;29;21677;-64
2022/06/19 00:09:01;;;;;;;29.20;20.42;;;;;;;;;;1668435;29;21984;-64
2022/06/19 00:09:53;;;;;;;27.23;19.02;;;;;;;;;;1669043;29;21607;-64
2022/06/19 00:10:45;;;;;;;22.92;17.70;;;;;;;;;;1668737;29;21636;-64
2022/06/19 00:11:39;;;;;;;22.60;18.55;;;;;;;;;;1669129;29;21655;-64
2022/06/19 00:12:31;;;;;;;22.80;18.33;;;;;;;;;;1669300;29;22162;-63
2022/06/19 00:13:22;;;;;;;26.83;18.05;;;;;;;;;;1668679;29;21755;-64
2022/06/19 00:14:15;;;;;;;23.00;17.90;;;;;;;;;;1669437;29;21600;-64
2022/06/19 00:15:08;;;;;;;21.35;17.92;;;;;;;;;;1669314;29;22331;-64
2022/06/19 00:16:01;;;;;;;20.05;17.02;;;;;;;;;;1669199;29;22588;-64
2022/06/19 00:16:52;;;;;;;22.02;16.63;;;;;;;;;;1669131;29;21608;-64
2022/06/19 00:17:45;;;;;;;18.33;16.42;;;;;;;;;;1673673;29;21700;-63
2022/06/19 00:18:38;;;;;;;20.77;16.25;;;;;;;;;;1670735;29;21675;-64
2022/06/19 00:19:30;;;;;;;17.67;15.80;;;;;;;;;;1671108;29;22502;-64
2022/06/19 00:20:22;;;;;;;22.08;16.27;;;;;;;;;;1669057;29;22019;-64
2022/06/19 00:21:15;;;;;;;17.60;14.68;;;;;;;;;;1668954;29;22884;-64
2022/06/19 00:22:07;;;;;;;20.92;15.60;;;;;;;;;;1669059;29;21905;-64
2022/06/19 00:22:59;;;;;;;17.80;14.55;;;;;;;;;;1673999;29;21611;-64
2022/06/19 00:23:51;;;;;;;15.98;14.38;;;;;;;;;;1671405;29;21617;-64
2022/06/19 00:24:44;;;;;;;21.00;15.05;;;;;;;;;;1668625;29;21621;-64
2022/06/19 00:25:37;;;;;;;28.27;15.52;;;;;;;;;;1673139;29;21559;-64
2022/06/19 00:26:29;;;;;;;16.20;14.52;;;;;;;;;;1664244;29;22205;-64
2022/06/19 00:27:21;;;;;;;16.73;13.73;;;;;;;;;;1663981;29;21611;-64
2022/06/19 00:28:13;;;;;;;16.58;13.45;;;;;;;;;;1670688;29;21997;-64
2022/06/19 00:29:04;;;;;;;20.50;14.18;;;;;;;;;;1669416;29;21841;-64
2022/06/19 00:29:56;;;;;;;16.20;13.05;;;;;;;;;;1665244;29;21667;-64
2022/06/19 00:30:47;;;;;;;15.90;14.13;;;;;;;;;;1662193;29;21696;-65
2022/06/19 00:31:40;;;;;;;15.55;13.52;;;;;;;;;;1666006;29;22081;-64
2022/06/19 00:32:31;;;;;;;17.02;13.18;;;;;;;;;;1668976;29;21689;-64
2022/06/19 00:33:23;;;;;;;14.18;12.73;;;;;;;;;;1671888;29;22453;-63
2022/06/19 00:34:14;;;;;;;14.70;12.57;;;;;;;;;;1673293;29;21587;-64
2022/06/19 00:35:08;;;;;;;13.00;11.68;;;;;;;;;;1670551;29;22027;-64
2022/06/19 00:35:59;;;;;;;14.43;11.95;;;;;;;;;;1669460;29;21798;-64
2022/06/19 00:36:52;;;;;;;12.32;11.43;;;;;;;;;;1668877;29;22399;-64
2022/06/19 00:37:43;;;;;;;13.02;11.73;;;;;;;;;;1668663;29;21686;-63
2022/06/19 00:38:36;;;;;;;15.13;11.35;;;;;;;;;;1668833;29;22876;-64
2022/06/19 00:39:28;;;;;;;14.18;11.63;;;;;;;;;;1670295;29;22459;-64
2022/06/19 00:40:22;;;;;;;17.23;11.07;;;;;;;;;;1674736;29;22475;-64
2022/06/19 00:41:14;;;;;;;17.90;11.00;;;;;;;;;;1668893;29;21637;-64
2022/06/19 00:42:09;;;;;;;11.93;10.82;;;;;;;;;;1671974;29;22000;-64
2022/06/19 00:43:00;;;;;;;11.63;9.88;;;;;;;;;;1672892;29;21650;-64
2022/06/19 00:43:58;;;;;;;12.00;10.93;;;;;;;;;;1669082;29;21591;-64
2022/06/19 00:44:49;;;;;;;11.73;10.63;;;;;;;;;;1669079;29;22015;-64
2022/06/19 00:45:49;;;;;;;11.52;10.68;;;;;;;;;;1668564;29;21676;-64
2022/06/19 00:46:49;;;;;;;11.75;10.57;;;;;;;;;;1668716;29;21781;-63
2022/06/19 00:47:41;;;;;;;15.40;10.40;;;;;;;;;;1668764;29;22237;-64
2022/06/19 00:48:37;;;;;;;10.48;9.38;;;;;;;;;;1669024;29;22632;-64
2022/06/19 00:49:34;;;;;;;11.25;10.25;;;;;;;;;;1665904;29;21608;-64
2022/06/19 00:50:28;;;;;;;10.68;9.57;;;;;;;;;;1667708;29;21621;-64
2022/06/19 00:51:20;;;;;;;14.73;10.43;;;;;;;;;;1668081;29;21771;-64
2022/06/19 00:52:16;;;;;;;12.05;9.63;;;;;;;;;;1670946;29;21608;-64
2022/06/19 00:53:14;;;;;;;10.43;9.52;;;;;;;;;;1669054;29;21770;-64
2022/06/19 00:54:06;;;;;;;9.55;8.85;;;;;;;;;;1670446;29;21591;-65
2022/06/19 00:55:03;;;;;;;10.10;9.40;;;;;;;;;;1662639;29;21745;-64
2022/06/19 00:55:57;;;;;;;10.45;9.55;;;;;;;;;;1663307;29;21674;-63
2022/06/19 00:56:50;;;;;;;9.57;8.75;;;;;;;;;;1672874;29;21656;-64
2022/06/19 00:57:45;;;;;;;10.43;9.52;;;;;;;;;;1669330;29;22439;-64
2022/06/19 00:58:40;;;;;;;10.15;9.38;;;;;;;;;;1668643;29;21767;-63
2022/06/19 00:59:32;;;;;;;10.20;9.30;;;;;;;;;;1668905;29;22513;-64
2022/06/19 01:00:27;;;;;;;9.63;8.68;;;;;;;;;;1665122;29;21619;-63
2022/06/19 01:01:23;;;;;;;10.68;9.05;;;;;;;;;;1668306;29;22123;-64
2022/06/19 01:02:16;;;;;;;9.65;8.85;;;;;;;;;;1670341;29;22004;-63
2022/06/19 01:03:15;;;;;;;10.50;8.93;;;;;;;;;;1670344;29;21989;-64
2022/06/19 01:04:14;;;;;;;9.18;8.40;;;;;;;;;;1662866;29;22125;-64
2022/06/19 01:05:06;;;;;;;9.35;8.48;;;;;;;;;;1666775;29;22100;-64
2022/06/19 01:05:59;;;;;;;9.07;8.35;;;;;;;;;;1667690;29;21592;-64
2022/06/19 01:06:51;;;;;;;9.18;8.38;;;;;;;;;;1668920;29;21986;-64
2022/06/19 01:07:44;;;;;;;10.43;8.50;;;;;;;;;;1661641;29;21664;-64
2022/06/19 01:08:36;;;;;;;10.30;8.00;;;;;;;;;;1663472;29;21608;-64
2022/06/19 01:09:28;;;;;;;9.25;8.15;;;;;;;;;;1660823;29;22594;-64
2022/06/19 01:10:19;;;;;;;9.50;8.63;;;;;;;;;;1661477;29;21623;-64
2022/06/19 01:11:13;;;;;;;12.18;8.88;;;;;;;;;;1666128;29;21940;-64
2022/06/19 01:12:08;;;;;;;12.50;8.80;;;;;;;;;;1671933;29;21596;-64
2022/06/19 01:13:01;;;;;;;8.80;8.00;;;;;;;;;;1667141;29;21671;-63
2022/06/19 01:13:53;;;;;;;9.02;8.25;;;;;;;;;;1667152;29;22722;-64
2022/06/19 01:14:46;;;;;;;8.45;7.63;;;;;;;;;;1669398;29;21966;-64
2022/06/19 01:15:38;;;;;;;9.23;8.27;;;;;;;;;;1672404;29;21662;-64
2022/06/19 01:16:31;;;;;;;13.98;8.52;;;;;;;;;;1664007;29;22386;-64
2022/06/19 01:17:23;;;;;;;8.45;7.85;;;;;;;;;;1663470;29;22524;-64
2022/06/19 01:18:15;;;;;;;8.60;7.80;;;;;;;;;;1668079;29;22004;-63
2022/06/19 01:19:08;;;;;;;11.95;8.18;;;;;;;;;;1670139;29;22644;-64
2022/06/19 01:20:02;;;;;;;8.90;8.10;;;;;;;;;;1669982;29;22513;-64
2022/06/19 01:20:57;;;;;;;11.02;8.65;;;;;;;;;;1668641;29;21600;-64
2022/06/19 01:21:58;;;;;;;8.77;7.95;;;;;;;;;;1671032;29;21825;-64
2022/06/19 01:23:09;;;;;;;8.75;7.38;;;;;;;;;;1669290;29;22003;-63
2022/06/19 01:24:07;;;;;;;8.43;7.75;;;;;;;;;;1668335;29;21732;-63
2022/06/19 01:25:08;;;;;;;8.57;7.65;;;;;;;;;;1668122;29;21927;-64
2022/06/19 01:25:59;;;;;;;8.27;7.53;;;;;;;;;;1662935;29;22303;-63
2022/06/19 01:26:59;;;;;;;8.93;8.05;;;;;;;;;;1671356;29;21976;-64
2022/06/19 01:29:07;;;;;;;8.48;7.75;;;;;;;;;;1663940;29;21875;-64
2022/06/19 01:29:59;;;;;;;7.82;7.10;;;;;;;;;;1671167;29;21618;-64
2022/06/19 01:30:53;;;;;;;11.25;7.88;;;;;;;;;;1666104;29;21631;-64
2022/06/19 01:31:49;;;;;;;8.98;7.95;;;;;;;;;;1668820;29;21804;-63
2022/06/19 01:32:43;;;;;;;8.55;7.75;;;;;;;;;;1668098;29;22431;-64
2022/06/19 01:33:45;;;;;;;8.45;7.75;;;;;;;;;;1668676;29;21640;-63
2022/06/19 01:34:41;;;;;;;7.93;7.32;;;;;;;;;;1660965;29;21660;-64
2022/06/19 01:35:35;;;;;;;8.32;7.53;;;;;;;;;;1661784;29;22810;-64
2022/06/19 01:36:31;;;;;;;9.35;7.68;;;;;;;;;;1673138;29;22626;-63
2022/06/19 01:37:25;;;;;;;8.57;7.68;;;;;;;;;;1670748;29;21924;-64
2022/06/19 01:38:20;;;;;;;7.53;6.82;;;;;;;;;;1668647;29;21583;-64
2022/06/19 01:39:12;;;;;;;8.00;7.28;;;;;;;;;;1668658;29;21583;-64
2022/06/19 01:40:13;;;;;;;8.13;7.38;;;;;;;;;;1674557;29;21743;-64
2022/06/19 01:41:10;;;;;;;7.90;7.03;;;;;;;;;;1670175;29;22292;-64
2022/06/19 01:42:04;;;;;;;8.18;7.47;;;;;;;;;;1665269;29;21633;-64
2022/06/19 01:42:55;;;;;;;7.97;7.28;;;;;;;;;;1660928;29;22461;-63
2022/06/19 01:43:48;;;;;;;7.88;6.95;;;;;;;;;;1662654;29;21983;-64
2022/06/19 01:44:41;;;;;;;8.27;6.85;;;;;;;;;;1665702;29;21669;-65
2022/06/19 01:45:34;;;;;;;7.40;6.90;;;;;;;;;;1669683;29;21631;-63
2022/06/19 01:46:28;;;;;;;6.93;6.43;;;;;;;;;;1668556;29;21737;-64
2022/06/19 01:47:23;;;;;;;6.88;6.28;;;;;;;;;;1670835;29;22025;-63
2022/06/19 01:48:15;;;;;;;7.50;6.80;;;;;;;;;;1673943;29;21718;-64
2022/06/19 01:49:07;;;;;;;8.85;7.25;;;;;;;;;;1666221;29;21607;-64
2022/06/19 01:50:00;;;;;;;7.57;6.88;;;;;;;;;;1663947;29;22035;-64
2022/06/19 01:50:53;;;;;;;7.43;6.82;;;;;;;;;;1668919;29;22585;-64
2022/06/19 01:51:44;;;;;;;7.07;6.57;;;;;;;;;;1671758;29;22418;-64
2022/06/19 01:52:36;;;;;;;6.90;6.35;;;;;;;;;;1669543;29;21755;-63
2022/06/19 01:53:37;;;;;;;7.22;6.30;;;;;;;;;;1674455;29;22252;-64
2022/06/19 01:54:34;;;;;;;6.72;6.03;;;;;;;;;;1668717;29;21805;-64
2022/06/19 01:55:28;;;;;;;7.00;6.40;;;;;;;;;;1669972;29;21594;-64
2022/06/19 01:56:21;;;;;;;6.80;6.30;;;;;;;;;;1669602;29;21680;-64
2022/06/19 01:57:14;;;;;;;6.15;5.63;;;;;;;;;;1668608;29;21617;-64
2022/06/19 01:58:07;;;;;;;7.07;6.57;;;;;;;;;;1673153;29;21606;-64
2022/06/19 01:59:04;;;;;;;6.43;5.93;;;;;;;;;;1669110;29;21603;-64
2022/06/19 01:59:59;;;;;;;6.53;6.03;;;;;;;;;;1668827;29;21672;-65
2022/06/19 02:00:51;;;;;;;5.80;5.40;;;;;;;;;;1669572;29;22102;-64
2022/06/19 02:01:44;;;;;;;7.32;6.25;;;;;;;;;;1664371;29;22255;-64
2022/06/19 02:02:37;;;;;;;6.15;5.65;;;;;;;;;;1663289;29;22641;-64
2022/06/19 02:03:33;;;;;;;5.75;5.35;;;;;;;;;;1669204;29;21632;-65
2022/06/19 02:04:24;;;;;;;6.20;5.65;;;;;;;;;;1673692;29;22302;-63
2022/06/19 02:05:18;;;;;;;6.13;5.57;;;;;;;;;;1668948;29;21845;-63
2022/06/19 02:06:11;;;;;;;5.93;5.50;;;;;;;;;;1669632;29;22053;-63
2022/06/19 02:07:07;;;;;;;7.13;5.68;;;;;;;;;;1668179;29;22478;-63
2022/06/19 02:07:59;;;;;;;5.57;5.07;;;;;;;;;;1667761;29;21640;-63
2022/06/19 02:08:51;;;;;;;7.55;5.47;;;;;;;;;;1667530;29;22485;-63
2022/06/19 02:09:44;;;;;;;6.07;5.47;;;;;;;;;;1671341;29;21674;-63
2022/06/19 02:10:40;;;;;;;5.95;5.10;;;;;;;;;;1674784;29;21662;-63
2022/06/19 02:11:34;;;;;;;5.65;5.25;;;;;;;;;;1669561;29;21626;-63
2022/06/19 02:12:29;;;;;;;5.97;5.55;;;;;;;;;;1669595;29;22018;-63
2022/06/19 02:13:23;;;;;;;7.53;5.80;;;;;;;;;;1668521;29;21591;-63
2022/06/19 02:14:16;;;;;;;5.45;4.97;;;;;;;;;;1669503;29;21972;-62
2022/06/19 02:15:12;;;;;;;7.53;4.82;;;;;;;;;;1668707;29;21680;-63
2022/06/19 02:16:08;;;;;;;5.63;4.90;;;;;;;;;;1668478;29;22415;-64
2022/06/19 02:17:06;;;;;;;5.13;4.80;;;;;;;;;;1668491;29;22329;-62
2022/06/19 02:18:00;;;;;;;5.32;4.78;;;;;;;;;;1670131;29;21653;-63
2022/06/19 02:18:54;;;;;;;5.47;4.82;;;;;;;;;;1669640;29;21641;-63
2022/06/19 02:19:46;;;;;;;4.63;4.32;;;;;;;;;;1669783;29;22794;-63
2022/06/19 02:20:38;;;;;;;5.65;5.22;;;;;;;;;;1668120;29;22128;-63
2022/06/19 02:21:38;;;;;;;7.30;5.18;;;;;;;;;;1668638;29;22492;-63
2022/06/19 02:22:30;;;;;;;5.00;4.65;;;;;;;;;;1670711;29;21983;-63
2022/06/19 02:23:28;;;;;;;5.78;5.38;;;;;;;;;;1668252;29;21617;-62
2022/06/19 02:24:24;;;;;;;6.00;5.50;;;;;;;;;;1668455;29;22271;-63
2022/06/19 02:25:15;;;;;;;5.30;4.90;;;;;;;;;;1669941;29;21988;-63
2022/06/19 02:26:11;;;;;;;4.68;4.38;;;;;;;;;;1666928;29;22404;-63
2022/06/19 02:27:04;;;;;;;5.40;5.00;;;;;;;;;;1661192;29;22412;-63
2022/06/19 02:27:56;;;;;;;5.78;5.28;;;;;;;;;;1669695;29;22557;-63
2022/06/19 02:28:50;;;;;;;5.05;4.65;;;;;;;;;;1671666;29;22692;-63
2022/06/19 02:29:43;;;;;;;5.03;4.65;;;;;;;;;;1669120;29;22820;-63
2022/06/19 02:30:35;;;;;;;5.85;5.30;;;;;;;;;;1671154;29;22519;-63
2022/06/19 02:31:27;;;;;;;4.85;4.55;;;;;;;;;;1668244;29;21644;-63
2022/06/19 02:32:23;;;;;;;4.90;4.50;;;;;;;;;;1661875;29;21740;-63
2022/06/19 02:33:19;;;;;;;4.55;4.28;;;;;;;;;;1669644;29;21987;-63
2022/06/19 02:34:20;;;;;;;4.60;4.28;;;;;;;;;;1672953;29;21636;-63
2022/06/19 02:35:16;;;;;;;4.85;4.45;;;;;;;;;;1668534;29;21866;-63
2022/06/19 02:36:39;;;;;;;5.00;4.60;;;;;;;;;;1670098;29;21660;-62
2022/06/19 02:37:37;;;;;;;4.55;4.25;;;;;;;;;;1669747;29;21912;-63
2022/06/19 02:38:28;;;;;;;5.28;4.78;;;;;;;;;;1669156;29;21655;-63
2022/06/19 02:39:34;;;;;;;5.05;4.65;;;;;;;;;;1668387;29;22198;-63
2022/06/19 02:40:39;;;;;;;5.00;4.53;;;;;;;;;;1669446;29;22296;-63
2022/06/19 02:41:42;;;;;;;4.50;4.20;;;;;;;;;;1665305;29;21661;-63
2022/06/19 02:42:39;;;;;;;4.72;4.32;;;;;;;;;;1661477;29;21903;-63
2022/06/19 02:43:33;;;;;;;5.07;4.78;;;;;;;;;;1673756;29;21628;-63
2022/06/19 02:44:32;;;;;;;4.50;4.20;;;;;;;;;;1664636;29;21849;-63
2022/06/19 02:45:27;;;;;;;6.53;4.75;;;;;;;;;;1668086;29;22246;-64
2022/06/19 02:46:18;;;;;;;4.38;4.07;;;;;;;;;;1667508;29;21675;-64
2022/06/19 02:47:10;;;;;;;4.60;4.15;;;;;;;;;;1668604;29;22426;-64
2022/06/19 02:48:02;;;;;;;4.30;4.00;;;;;;;;;;1668586;29;22316;-64
2022/06/19 02:48:53;;;;;;;4.35;4.00;;;;;;;;;;1668048;29;21586;-63
2022/06/19 02:49:46;;;;;;;4.43;4.10;;;;;;;;;;1670155;29;21802;-63
2022/06/19 02:50:42;;;;;;;4.20;3.90;;;;;;;;;;1668172;29;21662;-64
2022/06/19 02:51:34;;;;;;;5.50;4.25;;;;;;;;;;1668672;29;22011;-64
2022/06/19 02:52:25;;;;;;;4.47;4.18;;;;;;;;;;1668304;29;21657;-64
2022/06/19 02:53:18;;;;;;;4.20;3.90;;;;;;;;;;1668366;29;22682;-63
2022/06/19 02:54:09;;;;;;;4.00;3.80;;;;;;;;;;1674798;29;22604;-63
2022/06/19 02:55:02;;;;;;;6.72;4.45;;;;;;;;;;1668100;29;21862;-63
2022/06/19 02:55:54;;;;;;;4.47;4.00;;;;;;;;;;1669183;29;21666;-63
2022/06/19 02:56:47;;;;;;;4.15;3.83;;;;;;;;;;1662194;29;21836;-63
2022/06/19 02:57:39;;;;;;;4.30;3.78;;;;;;;;;;1661767;29;21607;-63
2022/06/19 02:58:31;;;;;;;4.45;4.15;;;;;;;;;;1668769;29;21635;-63
2022/06/19 02:59:22;;;;;;;4.43;4.13;;;;;;;;;;1669046;29;21641;-63
2022/06/19 03:00:18;;;;;;;3.80;3.50;;;;;;;;;;1675370;29;21621;-64
2022/06/19 03:01:09;;;;;;;3.63;3.42;;;;;;;;;;1669420;29;21585;-64
2022/06/19 03:02:01;;;;;;;4.22;3.92;;;;;;;;;;1667162;29;22061;-64
2022/06/19 03:02:58;;;;;;;3.92;3.70;;;;;;;;;;1668798;29;22158;-63
2022/06/19 03:03:50;;;;;;;3.95;3.65;;;;;;;;;;1670063;29;21579;-63
2022/06/19 03:04:45;;;;;;;4.50;4.10;;;;;;;;;;1667759;29;21582;-63
2022/06/19 03:05:38;;;;;;;4.22;3.83;;;;;;;;;;1667538;29;21639;-63
2022/06/19 03:06:29;;;;;;;6.55;3.88;;;;;;;;;;1668235;29;21600;-63
2022/06/19 03:07:20;;;;;;;4.82;3.80;;;;;;;;;;1674477;29;21965;-63
2022/06/19 03:08:12;;;;;;;4.03;3.80;;;;;;;;;;1670833;29;22263;-64
2022/06/19 03:09:04;;;;;;;3.97;3.67;;;;;;;;;;1668184;29;22273;-63
2022/06/19 03:09:57;;;;;;;4.05;3.72;;;;;;;;;;1675421;29;21634;-64
2022/06/19 03:10:48;;;;;;;3.80;3.58;;;;;;;;;;1670568;29;22599;-63
2022/06/19 03:11:40;;;;;;;3.92;3.47;;;;;;;;;;1667806;29;21616;-63
2022/06/19 03:12:33;;;;;;;3.53;3.33;;;;;;;;;;1672965;29;21675;-63
2022/06/19 03:13:26;;;;;;;3.72;3.53;;;;;;;;;;1670669;29;21623;-63
2022/06/19 03:14:17;;;;;;;3.50;3.25;;;;;;;;;;1668180;29;22615;-63
2022/06/19 03:15:11;;;;;;;3.50;3.30;;;;;;;;;;1673867;29;22035;-63
2022/06/19 03:16:03;;;;;;;3.58;3.38;;;;;;;;;;1670858;29;21606;-63
2022/06/19 03:16:55;;;;;;;3.88;3.58;;;;;;;;;;1663426;29;21728;-63
2022/06/19 03:17:47;;;;;;;3.63;3.42;;;;;;;;;;1661291;29;21623;-63
2022/06/19 03:18:39;;;;;;;3.53;3.30;;;;;;;;;;1665363;29;21799;-64
2022/06/19 03:19:30;;;;;;;3.50;3.30;;;;;;;;;;1668454;29;21784;-63
2022/06/19 03:20:25;;;;;;;3.75;3.45;;;;;;;;;;1668288;29;22531;-63
2022/06/19 03:21:16;;;;;;;6.07;3.50;;;;;;;;;;1668277;29;22602;-63
2022/06/19 03:22:09;;;;;;;4.20;3.90;;;;;;;;;;1661749;29;22500;-63
2022/06/19 03:23:00;;;;;;;3.40;3.20;;;;;;;;;;1664097;29;21733;-63
2022/06/19 03:23:52;;;;;;;4.05;3.75;;;;;;;;;;1669883;29;21647;-64
2022/06/19 03:24:44;;;;;;;3.63;3.42;;;;;;;;;;1668057;29;21967;-63
2022/06/19 03:25:36;;;;;;;3.80;3.50;;;;;;;;;;1668192;29;21996;-63
2022/06/19 03:26:27;;;;;;;3.58;3.38;;;;;;;;;;1668238;29;21671;-63
2022/06/19 03:27:19;;;;;;;3.72;3.42;;;;;;;;;;1668364;29;21641;-64
2022/06/19 03:28:12;;;;;;;3.40;3.20;;;;;;;;;;1670012;29;22513;-63
2022/06/19 03:29:05;;;;;;;3.50;3.30;;;;;;;;;;1668349;29;21626;-63
2022/06/19 03:29:56;;;;;;;3.80;3.60;;;;;;;;;;1668425;29;22481;-63
2022/06/19 03:30:53;;;;;;;6.13;3.53;;;;;;;;;;1668869;29;21673;-63
2022/06/19 03:31:44;;;;;;;3.92;3.63;;;;;;;;;;1674235;29;21589;-63
2022/06/19 03:32:37;;;;;;;3.28;3.08;;;;;;;;;;1665229;29;21930;-63
2022/06/19 03:33:28;;;;;;;5.82;4.13;;;;;;;;;;1663784;29;22584;-63
2022/06/19 03:34:20;;;;;;;3.78;3.47;;;;;;;;;;1664282;29;21598;-64
2022/06/19 03:35:13;;;;;;;4.50;4.13;;;;;;;;;;1661286;29;22158;-63
2022/06/19 03:36:06;;;;;;;3.80;3.50;;;;;;;;;;1666932;29;22227;-63
2022/06/19 03:36:58;;;;;;;4.25;3.95;;;;;;;;;;1671273;29;22499;-63
2022/06/19 03:37:49;;;;;;;4.35;3.95;;;;;;;;;;1673154;29;22467;-63
2022/06/19 03:38:42;;;;;;;3.97;3.67;;;;;;;;;;1668729;29;22054;-63
2022/06/19 03:39:33;;;;;;;4.00;3.70;;;;;;;;;;1664524;29;22221;-64
2022/06/19 03:40:25;;;;;;;4.07;3.75;;;;;;;;;;1667638;29;21594;-63
2022/06/19 03:41:17;;;;;;;5.38;4.38;;;;;;;;;;1665954;29;21687;-63
2022/06/19 03:42:10;;;;;;;4.18;3.90;;;;;;;;;;1666257;29;21708;-63
2022/06/19 03:43:03;;;;;;;4.43;4.07;;;;;;;;;;1666459;29;21923;-63
2022/06/19 03:43:56;;;;;;;4.68;4.28;;;;;;;;;;1663149;29;21999;-63
2022/06/19 03:44:48;;;;;;;5.53;3.80;;;;;;;;;;1664074;29;22163;-64
2022/06/19 03:45:40;;;;;;;4.00;3.70;;;;;;;;;;1658397;29;21960;-64
2022/06/19 03:46:32;;;;;;;5.47;4.28;;;;;;;;;;1666334;29;22389;-63
2022/06/19 03:47:27;;;;;;;4.75;4.40;;;;;;;;;;1668041;29;22523;-64
2022/06/19 03:48:19;;;;;;;4.18;3.78;;;;;;;;;;1669762;29;21643;-63
2022/06/19 03:49:11;;;;;;;4.30;3.90;;;;;;;;;;1663098;29;21867;-64
2022/06/19 03:50:03;;;;;;;3.80;3.50;;;;;;;;;;1662143;29;22299;-64
2022/06/19 03:50:56;;;;;;;4.72;4.15;;;;;;;;;;1671664;29;21607;-63
2022/06/19 03:51:47;;;;;;;4.53;4.18;;;;;;;;;;1666240;29;21943;-63
2022/06/19 03:52:39;;;;;;;3.53;3.22;;;;;;;;;;1663841;29;21642;-64
2022/06/19 03:53:30;;;;;;;4.45;4.05;;;;;;;;;;1671850;29;21690;-63
2022/06/19 03:54:22;;;;;;;3.85;3.55;;;;;;;;;;1661072;29;21660;-64
2022/06/19 03:55:14;;;;;;;4.45;4.05;;;;;;;;;;1660870;29;21731;-64
2022/06/19 03:56:07;;;;;;;4.18;3.88;;;;;;;;;;1672150;29;21704;-63
2022/06/19 03:56:59;;;;;;;4.10;3.70;;;;;;;;;;1668567;29;21645;-63
2022/06/19 03:57:51;;;;;;;3.83;3.55;;;;;;;;;;1667956;29;21586;-64
2022/06/19 03:58:45;;;;;;;3.67;3.42;;;;;;;;;;1670373;29;21716;-63
2022/06/19 03:59:39;;;;;;;4.05;3.75;;;;;;;;;;1669309;29;21985;-63
2022/06/19 04:00:30;;;;;;;4.00;3.70;;;;;;;;;;1669609;29;21679;-63
2022/06/19 04:01:25;;;;;;;4.03;3.78;;;;;;;;;;1674935;29;21637;-63
2022/06/19 04:02:16;;;;;;;4.22;3.58;;;;;;;;;;1668396;29;21739;-63
2022/06/19 04:03:10;;;;;;;3.78;3.47;;;;;;;;;;1670253;29;21641;-64
2022/06/19 04:04:02;;;;;;;4.78;3.25;;;;;;;;;;1669215;29;21635;-63
2022/06/19 04:04:54;;;;;;;3.97;3.67;;;;;;;;;;1668457;29;22116;-63
2022/06/19 04:05:45;;;;;;;4.85;3.67;;;;;;;;;;1667381;29;21604;-64
2022/06/19 04:06:40;;;;;;;4.00;3.70;;;;;;;;;;1667777;29;21580;-64
2022/06/19 04:07:31;;;;;;;3.65;3.35;;;;;;;;;;1668899;29;21699;-64
2022/06/19 04:08:23;;;;;;;4.10;3.80;;;;;;;;;;1670427;29;21627;-64
2022/06/19 04:09:17;;;;;;;3.45;3.15;;;;;;;;;;1669254;29;21678;-64
2022/06/19 04:10:10;;;;;;;4.10;3.70;;;;;;;;;;1669295;29;21854;-64
2022/06/19 04:11:01;;;;;;;8.00;3.83;;;;;;;;;;1667954;29;21766;-63
2022/06/19 04:11:53;;;;;;;19.90;3.80;;;;;;;;;;1669240;29;21927;-63
2022/06/19 04:12:45;;;;;;;3.85;3.55;;;;;;;;;;1667775;29;21854;-64
2022/06/19 04:13:37;;;;;;;4.50;3.58;;;;;;;;;;1668240;29;21626;-64
2022/06/19 04:14:28;;;;;;;4.05;3.75;;;;;;;;;;1669036;29;22047;-64
2022/06/19 04:15:22;;;;;;;7.53;3.83;;;;;;;;;;1669050;29;21911;-63
2022/06/19 04:16:19;;;;;;;3.42;3.22;;;;;;;;;;1669331;29;22280;-63
2022/06/19 04:17:11;;;;;;;3.75;3.45;;;;;;;;;;1670521;29;21667;-63
2022/06/19 04:18:02;;;;;;;4.15;3.85;;;;;;;;;;1676210;29;21640;-63
2022/06/19 04:18:56;;;;;;;3.47;3.28;;;;;;;;;;1669226;29;21753;-64
2022/06/19 04:19:48;;;;;;;5.35;3.53;;;;;;;;;;1670051;29;21644;-63
2022/06/19 04:20:41;;;;;;;3.40;3.17;;;;;;;;;;1674642;29;21614;-63
2022/06/19 04:21:35;;;;;;;4.43;3.28;;;;;;;;;;1668877;29;22290;-64
2022/06/19 04:22:27;;;;;;;3.97;3.58;;;;;;;;;;1669079;29;21633;-64
2022/06/19 04:23:19;;;;;;;3.60;3.22;;;;;;;;;;1669180;29;22625;-64
2022/06/19 04:24:14;;;;;;;3.55;3.25;;;;;;;;;;1669184;29;22611;-63
2022/06/19 04:25:13;;;;;;;3.28;3.08;;;;;;;;;;1668802;29;22403;-64
2022/06/19 04:26:09;;;;;;;6.53;3.55;;;;;;;;;;1670642;29;21602;-63
2022/06/19 04:27:05;;;;;;;3.80;3.42;;;;;;;;;;1670828;29;22395;-64
2022/06/19 04:27:57;;;;;;;7.20;3.60;;;;;;;;;;1671027;29;21742;-63
2022/06/19 04:28:48;;;;;;;3.70;3.50;;;;;;;;;;1670950;29;21658;-64
2022/06/19 04:29:41;;;;;;;3.80;3.50;;;;;;;;;;1661810;29;22679;-63
2022/06/19 04:30:33;;;;;;;4.00;3.70;;;;;;;;;;1662938;29;21949;-63
2022/06/19 04:31:25;;;;;;;3.58;3.38;;;;;;;;;;1666591;29;21747;-63
2022/06/19 04:32:17;;;;;;;3.50;3.20;;;;;;;;;;1673221;29;21743;-63
2022/06/19 04:33:09;;;;;;;3.47;3.17;;;;;;;;;;1662627;29;21602;-63
2022/06/19 04:34:01;;;;;;;4.63;3.22;;;;;;;;;;1668022;29;22584;-64
2022/06/19 04:34:53;;;;;;;3.72;3.42;;;;;;;;;;1667220;29;22272;-63
2022/06/19 04:35:44;;;;;;;3.97;3.58;;;;;;;;;;1669297;29;22249;-63
2022/06/19 04:36:37;;;;;;;3.42;3.17;;;;;;;;;;1675393;29;22198;-63
2022/06/19 04:37:28;;;;;;;5.45;3.38;;;;;;;;;;1668771;29;22042;-63
2022/06/19 04:38:21;;;;;;;3.67;3.25;;;;;;;;;;1669019;29;22433;-63
2022/06/19 04:39:12;;;;;;;3.85;3.55;;;;;;;;;;1669484;29;21648;-63
2022/06/19 04:40:05;;;;;;;4.35;3.28;;;;;;;;;;1669131;29;21897;-64
2022/06/19 04:40:57;;;;;;;3.58;3.28;;;;;;;;;;1669035;29;22556;-64
2022/06/19 04:41:49;;;;;;;3.53;3.22;;;;;;;;;;1671500;29;21975;-63
2022/06/19 04:42:41;;;;;;;4.03;3.63;;;;;;;;;;1675596;29;21602;-63
2022/06/19 04:43:33;;;;;;;3.70;3.50;;;;;;;;;;1669136;29;21724;-63
2022/06/19 04:44:24;;;;;;;4.38;3.10;;;;;;;;;;1668885;29;21805;-63
2022/06/19 04:45:17;;;;;;;3.28;2.97;;;;;;;;;;1669206;29;21584;-63
2022/06/19 04:46:10;;;;;;;3.10;2.90;;;;;;;;;;1670618;29;21638;-63
2022/06/19 04:47:02;;;;;;;3.10;2.90;;;;;;;;;;1669070;29;21555;-63
2022/06/19 04:47:53;;;;;;;3.70;3.40;;;;;;;;;;1676349;29;21603;-63
2022/06/19 04:48:46;;;;;;;3.75;3.40;;;;;;;;;;1669580;29;21674;-64
2022/06/19 04:49:37;;;;;;;3.95;3.65;;;;;;;;;;1668295;29;21849;-63
2022/06/19 04:50:30;;;;;;;3.60;3.30;;;;;;;;;;1675461;29;21909;-63
2022/06/19 04:51:21;;;;;;;5.63;2.97;;;;;;;;;;1669277;29;21589;-64
2022/06/19 04:52:13;;;;;;;5.95;3.10;;;;;;;;;;1669680;29;21664;-63
2022/06/19 04:53:04;;;;;;;3.92;3.35;;;;;;;;;;1669046;29;21930;-63
2022/06/19 04:53:57;;;;;;;3.20;2.90;;;;;;;;;;1662662;29;22446;-63
2022/06/19 04:54:48;;;;;;;4.05;3.58;;;;;;;;;;1663616;29;21631;-63
2022/06/19 04:55:40;;;;;;;3.10;2.90;;;;;;;;;;1671085;29;21627;-63
2022/06/19 04:56:33;;;;;;;3.83;3.17;;;;;;;;;;1670809;29;21628;-63
2022/06/19 04:57:25;;;;;;;3.30;3.10;;;;;;;;;;1662455;29;21616;-63
2022/06/19 04:58:16;;;;;;;7.97;3.25;;;;;;;;;;1665166;29;22523;-64
2022/06/19 04:59:09;;;;;;;3.95;3.40;;;;;;;;;;1668133;29;22438;-63
2022/06/19 05:00:00;;;;;;;3.70;3.40;;;;;;;;;;1668913;29;21593;-64
2022/06/19 05:00:54;;;;;;;3.85;3.55;;;;;;;;;;1668910;29;21653;-63
2022/06/19 05:01:47;;;;;;;3.35;3.15;;;;;;;;;;1668705;29;21643;-63
2022/06/19 05:02:39;;;;;;;3.35;3.08;;;;;;;;;;1668337;29;22135;-63
2022/06/19 05:03:30;;;;;;;3.45;3.25;;;;;;;;;;1672510;29;21921;-63
2022/06/19 05:04:23;;;;;;;3.05;2.85;;;;;;;;;;1673174;29;21701;-63
2022/06/19 05:05:16;;;;;;;3.40;3.20;;;;;;;;;;1670174;29;21586;-65
2022/06/19 05:06:09;;;;;;;3.10;2.90;;;;;;;;;;1668663;29;22623;-64
2022/06/19 05:07:00;;;;;;;3.13;2.95;;;;;;;;;;1668888;29;21606;-65
2022/06/19 05:07:52;;;;;;;4.38;3.20;;;;;;;;;;1668857;29;21852;-64
2022/06/19 05:08:43;;;;;;;3.58;3.28;;;;;;;;;;1669030;29;21644;-64
2022/06/19 05:09:36;;;;;;;3.42;3.22;;;;;;;;;;1668605;29;21928;-64
2022/06/19 05:10:27;;;;;;;3.08;2.80;;;;;;;;;;1671518;29;21982;-64
2022/06/19 05:11:21;;;;;;;3.90;3.60;;;;;;;;;;1673446;29;21770;-64
2022/06/19 05:12:12;;;;;;;3.10;2.90;;;;;;;;;;1665454;29;21625;-63
2022/06/19 05:13:06;;;;;;;3.10;2.90;;;;;;;;;;1661826;29;22355;-64
2022/06/19 05:13:57;;;;;;;3.38;3.17;;;;;;;;;;1667432;29;21661;-64
2022/06/19 05:14:50;;;;;;;3.42;3.22;;;;;;;;;;1671605;29;21649;-63
2022/06/19 05:15:41;;;;;;;3.42;2.92;;;;;;;;;;1670332;29;22716;-63
2022/06/19 05:16:33;;;;;;;3.85;3.50;;;;;;;;;;1675103;29;22115;-63
2022/06/19 05:17:26;;;;;;;3.55;3.30;;;;;;;;;;1669066;29;22475;-63
2022/06/19 05:18:18;;;;;;;3.33;3.13;;;;;;;;;;1668623;29;22408;-63
2022/06/19 05:19:11;;;;;;;3.40;3.20;;;;;;;;;;1672114;29;21789;-63